createdAt,value
2022-12-25T00:00:24.020Z,100.00
2022-12-25T00:02:50.452Z,100.00
2022-12-25T00:05:16.732Z,100.00
2022-12-25T00:07:43.100Z,100.00
2022-12-25T00:10:09.414Z,100.00
2022-12-25T00:12:35.759Z,99.82
2022-12-25T00:15:02.099Z,99.77
2022-12-25T00:17:28.429Z,99.67
2022-12-25T00:19:54.807Z,99.59
2022-12-25T00:22:21.123Z,99.53
2022-12-25T00:24:47.451Z,99.40
2022-12-25T00:27:13.826Z,99.17
2022-12-25T00:29:40.182Z,99.10
2022-12-25T00:32:06.508Z,99.01
2022-12-25T00:34:32.848Z,99.02
2022-12-25T00:36:59.218Z,98.67
2022-12-25T00:39:25.530Z,98.39
2022-12-25T00:41:51.869Z,98.23
2022-12-25T00:44:18.229Z,98.17
2022-12-25T00:46:44.642Z,98.07
2022-12-25T00:49:10.948Z,97.89
2022-12-25T00:51:37.341Z,97.85
2022-12-25T00:54:03.702Z,97.71
2022-12-25T00:56:30.083Z,97.75
2022-12-25T00:58:56.446Z,97.72
2022-12-25T01:01:22.924Z,97.75
2022-12-25T01:03:49.125Z,97.59
2022-12-25T01:06:15.468Z,97.32
2022-12-25T01:08:41.826Z,97.73
2022-12-25T01:11:08.166Z,98.10
2022-12-25T01:13:34.489Z,98.48
2022-12-25T01:16:00.854Z,98.78
2022-12-25T01:18:27.205Z,99.07
2022-12-25T01:20:53.532Z,99.41
2022-12-25T01:23:19.942Z,99.46
2022-12-25T01:25:46.256Z,99.68
2022-12-25T01:28:12.573Z,99.78
2022-12-25T01:30:38.974Z,99.69
2022-12-25T01:33:05.279Z,99.69
2022-12-25T01:35:31.633Z,99.52
2022-12-25T01:37:57.939Z,99.10
2022-12-25T01:40:24.327Z,98.78
2022-12-25T01:42:50.643Z,98.60
2022-12-25T01:45:17.029Z,98.25
2022-12-25T01:47:43.350Z,97.93
2022-12-25T01:50:09.712Z,97.75
2022-12-25T01:52:36.013Z,98.08
2022-12-25T01:55:02.355Z,97.99
2022-12-25T01:57:28.686Z,98.08
2022-12-25T01:59:55.019Z,98.14
2022-12-25T02:02:21.488Z,98.00
2022-12-25T02:04:47.735Z,97.77
2022-12-25T02:07:14.051Z,97.57
2022-12-25T02:09:40.408Z,97.19
2022-12-25T02:12:06.725Z,97.13
2022-12-25T02:14:33.105Z,96.86
2022-12-25T02:16:59.497Z,96.83
2022-12-25T02:19:25.797Z,96.88
2022-12-25T02:21:52.126Z,96.91
2022-12-25T02:24:18.463Z,97.21
2022-12-25T02:26:44.825Z,97.42
2022-12-25T02:29:11.202Z,97.16
2022-12-25T02:31:37.572Z,97.31
2022-12-25T02:34:03.866Z,97.53
2022-12-25T02:36:30.236Z,97.40
2022-12-25T02:38:56.567Z,96.96
2022-12-25T02:41:22.893Z,96.59
2022-12-25T02:43:49.283Z,96.22
2022-12-25T02:46:18.095Z,96.00
2022-12-25T02:48:44.447Z,95.98
2022-12-25T02:51:10.810Z,96.02
2022-12-25T02:53:37.151Z,96.26
2022-12-25T02:56:03.525Z,96.26
2022-12-25T02:58:29.891Z,96.12
2022-12-25T03:00:56.231Z,96.01
2022-12-25T03:03:22.638Z,96.02
2022-12-25T03:05:48.914Z,95.71
2022-12-25T03:08:15.255Z,95.78
2022-12-25T03:10:41.586Z,95.73
2022-12-25T03:13:07.980Z,96.03
2022-12-25T03:15:34.281Z,96.19
2022-12-25T03:18:00.642Z,96.32
2022-12-25T03:20:26.993Z,96.28
2022-12-25T03:22:53.408Z,96.36
2022-12-25T03:25:19.760Z,96.57
2022-12-25T03:27:46.102Z,96.65
2022-12-25T03:30:12.458Z,96.97
2022-12-25T03:32:38.837Z,97.38
2022-12-25T03:35:05.891Z,97.87
2022-12-25T03:37:31.514Z,98.37
2022-12-25T03:39:57.880Z,98.54
2022-12-25T03:42:24.214Z,98.39
2022-12-25T03:44:50.544Z,98.12
2022-12-25T03:47:16.887Z,98.12
2022-12-25T03:49:43.206Z,98.14
2022-12-25T03:52:09.562Z,98.18
2022-12-25T03:54:35.875Z,98.27
2022-12-25T03:57:02.340Z,98.35
2022-12-25T03:59:28.642Z,98.23
2022-12-25T04:01:55.087Z,98.06
2022-12-25T04:04:21.379Z,98.11
2022-12-25T04:06:47.780Z,97.90
2022-12-25T04:09:14.096Z,97.57
2022-12-25T04:11:40.457Z,97.47
2022-12-25T04:14:06.809Z,97.40
2022-12-25T04:16:33.186Z,97.28
2022-12-25T04:18:59.498Z,97.01
2022-12-25T04:21:25.886Z,96.97
2022-12-25T04:23:52.235Z,97.02
2022-12-25T04:26:18.607Z,96.79
2022-12-25T04:28:44.963Z,96.63
2022-12-25T04:31:11.428Z,96.73
2022-12-25T04:33:37.647Z,96.85
2022-12-25T04:36:03.982Z,97.05
2022-12-25T04:38:30.340Z,97.19
2022-12-25T04:40:56.727Z,97.46
2022-12-25T04:43:23.087Z,97.79
2022-12-25T04:45:49.413Z,97.99
2022-12-25T04:48:15.729Z,98.10
2022-12-25T04:50:42.082Z,98.06
2022-12-25T04:53:08.403Z,98.27
2022-12-25T04:55:34.824Z,98.11
2022-12-25T04:58:01.119Z,98.19
2022-12-25T05:00:27.509Z,98.11
2022-12-25T05:02:54.001Z,98.21
2022-12-25T05:05:20.231Z,98.35
2022-12-25T05:07:46.584Z,98.41
2022-12-25T05:10:12.923Z,98.58
2022-12-25T05:12:39.281Z,98.51
2022-12-25T05:15:05.651Z,98.46
2022-12-25T05:17:31.972Z,98.36
2022-12-25T05:19:58.368Z,98.44
2022-12-25T05:22:24.686Z,98.54
2022-12-25T05:24:51.045Z,98.48
2022-12-25T05:27:17.371Z,98.57
2022-12-25T05:29:43.734Z,98.65
2022-12-25T05:32:10.112Z,98.68
2022-12-25T05:34:36.433Z,98.84
2022-12-25T05:37:02.801Z,98.95
2022-12-25T05:39:29.137Z,99.20
2022-12-25T05:41:55.486Z,99.10
2022-12-25T05:44:21.872Z,98.99
2022-12-25T05:46:48.262Z,98.64
2022-12-25T05:49:14.551Z,98.21
2022-12-25T05:51:40.896Z,97.88
2022-12-25T05:54:07.213Z,97.35
2022-12-25T05:56:33.629Z,96.82
2022-12-25T05:58:59.943Z,96.46
2022-12-25T06:01:26.308Z,96.28
2022-12-25T06:03:52.651Z,95.99
2022-12-25T06:06:18.952Z,95.79
2022-12-25T06:08:45.323Z,95.43
2022-12-25T06:11:11.646Z,94.53
2022-12-25T06:13:38.010Z,93.37
2022-12-25T06:16:04.458Z,92.56
2022-12-25T06:18:30.735Z,91.59
2022-12-25T06:20:57.127Z,89.61
2022-12-25T06:23:23.488Z,88.85
2022-12-25T06:25:49.819Z,87.26
2022-12-25T06:28:16.127Z,86.38
2022-12-25T06:30:42.523Z,85.57
2022-12-25T06:33:08.833Z,85.12
2022-12-25T06:35:35.214Z,84.97
2022-12-25T06:38:01.574Z,85.74
2022-12-25T06:40:27.910Z,84.09
2022-12-25T06:42:54.327Z,83.47
2022-12-25T06:45:20.652Z,83.41
2022-12-25T06:47:46.978Z,81.87
2022-12-25T06:50:13.356Z,80.27
2022-12-25T06:52:39.731Z,80.32
2022-12-25T06:55:06.059Z,79.52
2022-12-25T06:57:32.377Z,78.33
2022-12-25T06:59:58.717Z,77.71
2022-12-25T07:02:25.215Z,78.22
2022-12-25T07:04:51.558Z,77.68
2022-12-25T07:07:17.754Z,75.96
2022-12-25T07:09:44.171Z,73.93
2022-12-25T07:12:10.522Z,70.94
2022-12-25T07:14:36.907Z,69.91
2022-12-25T07:17:03.256Z,69.56
2022-12-25T07:19:29.643Z,70.97
2022-12-25T07:21:55.988Z,71.05
2022-12-25T07:24:22.405Z,69.59
2022-12-25T07:26:48.686Z,68.82
2022-12-25T07:29:15.078Z,68.74
2022-12-25T07:31:41.496Z,68.22
2022-12-25T07:34:07.742Z,66.43
2022-12-25T07:36:34.080Z,66.14
2022-12-25T07:39:00.460Z,65.12
2022-12-25T07:41:26.814Z,65.02
2022-12-25T07:43:53.193Z,65.45
2022-12-25T07:46:19.542Z,64.51
2022-12-25T07:48:45.900Z,64.68
2022-12-25T07:51:12.225Z,64.59
2022-12-25T07:53:38.548Z,63.33
2022-12-25T07:56:04.894Z,64.55
2022-12-25T07:58:31.279Z,63.98
2022-12-25T08:00:57.691Z,64.22
2022-12-25T08:03:24.108Z,63.62
2022-12-25T08:05:50.366Z,63.10
2022-12-25T08:08:16.756Z,62.48
2022-12-25T08:10:43.043Z,64.35
2022-12-25T08:13:14.461Z,63.90
2022-12-25T08:15:35.752Z,63.62
2022-12-25T08:18:02.086Z,64.68
2022-12-25T08:20:28.451Z,63.56
2022-12-25T08:22:54.822Z,63.09
2022-12-25T08:25:21.140Z,63.09
2022-12-25T08:27:47.494Z,63.21
2022-12-25T08:30:13.856Z,62.04
2022-12-25T08:32:40.234Z,62.41
2022-12-25T08:35:06.550Z,61.00
2022-12-25T08:37:32.920Z,59.97
2022-12-25T08:39:59.258Z,59.33
2022-12-25T08:42:25.640Z,59.70
2022-12-25T08:44:51.956Z,58.49
2022-12-25T08:47:18.338Z,59.46
2022-12-25T08:49:44.659Z,59.83
2022-12-25T08:52:11.049Z,59.02
2022-12-25T08:54:37.374Z,59.16
2022-12-25T08:57:03.749Z,59.26
2022-12-25T08:59:30.070Z,59.39
2022-12-25T09:01:56.618Z,57.40
2022-12-25T09:04:22.853Z,58.51
2022-12-25T09:06:49.229Z,57.77
2022-12-25T09:09:15.543Z,58.75
2022-12-25T09:11:41.932Z,59.93
2022-12-25T09:14:08.255Z,60.13
2022-12-25T09:16:34.596Z,58.77
2022-12-25T09:19:00.927Z,59.07
2022-12-25T09:21:27.311Z,58.55
2022-12-25T09:23:53.630Z,56.86
2022-12-25T09:26:20.013Z,57.16
2022-12-25T09:28:51.401Z,57.48
2022-12-25T09:31:12.812Z,56.39
2022-12-25T09:33:39.097Z,56.41
2022-12-25T09:36:05.452Z,56.61
2022-12-25T09:38:31.805Z,56.59
2022-12-25T09:40:58.215Z,55.37
2022-12-25T09:43:24.599Z,56.21
2022-12-25T09:45:51.004Z,54.91
2022-12-25T09:48:17.268Z,54.57
2022-12-25T09:50:43.707Z,53.97
2022-12-25T09:53:09.988Z,53.86
2022-12-25T09:55:36.330Z,54.19
2022-12-25T09:58:02.710Z,52.64
2022-12-25T10:00:29.097Z,53.21
2022-12-25T10:02:55.622Z,53.60
2022-12-25T10:05:21.750Z,51.17
2022-12-25T10:07:48.083Z,52.33
2022-12-25T10:10:14.471Z,52.83
2022-12-25T10:12:40.812Z,52.19
2022-12-25T10:15:07.144Z,52.88
2022-12-25T10:17:33.509Z,53.85
2022-12-25T10:19:59.848Z,53.41
2022-12-25T10:22:26.163Z,53.43
2022-12-25T10:24:52.508Z,53.54
2022-12-25T10:27:18.869Z,53.97
2022-12-25T10:29:47.296Z,53.72
2022-12-25T10:32:11.597Z,51.80
2022-12-25T10:34:37.942Z,51.22
2022-12-25T10:37:04.297Z,50.41
2022-12-25T10:39:30.677Z,51.60
2022-12-25T10:41:57.042Z,50.76
2022-12-25T10:44:23.384Z,50.38
2022-12-25T10:46:49.822Z,50.38
2022-12-25T10:49:16.053Z,50.12
2022-12-25T10:51:42.375Z,48.68
2022-12-25T10:54:08.774Z,49.29
2022-12-25T10:56:35.118Z,50.26
2022-12-25T10:59:01.443Z,50.63
2022-12-25T11:01:27.920Z,50.52
2022-12-25T11:03:54.189Z,50.95
2022-12-25T11:06:20.465Z,49.65
2022-12-25T11:08:46.808Z,48.73
2022-12-25T11:11:13.175Z,50.32
2022-12-25T11:13:39.517Z,50.06
2022-12-25T11:16:05.935Z,49.72
2022-12-25T11:18:32.216Z,50.42
2022-12-25T11:20:58.607Z,50.34
2022-12-25T11:23:24.949Z,50.85
2022-12-25T11:25:51.319Z,51.80
2022-12-25T11:28:17.712Z,51.79
2022-12-25T11:30:44.026Z,51.17
2022-12-25T11:33:10.437Z,51.18
2022-12-25T11:35:36.856Z,52.06
2022-12-25T11:38:03.246Z,50.93
2022-12-25T11:40:29.570Z,51.27
2022-12-25T11:42:55.969Z,51.42
2022-12-25T11:45:22.318Z,51.20
2022-12-25T11:47:48.755Z,51.89
2022-12-25T11:50:15.070Z,52.18
2022-12-25T11:52:41.450Z,51.50
2022-12-25T11:55:07.788Z,52.14
2022-12-25T11:57:34.134Z,52.44
2022-12-25T12:00:00.464Z,51.83
2022-12-25T12:02:26.946Z,51.33
2022-12-25T12:04:53.181Z,51.76
2022-12-25T12:07:19.519Z,52.48
2022-12-25T12:09:45.845Z,52.63
2022-12-25T12:12:12.229Z,52.98
2022-12-25T12:14:38.583Z,52.62
2022-12-25T12:17:04.922Z,51.36
2022-12-25T12:19:31.264Z,52.56
2022-12-25T12:21:57.597Z,52.26
2022-12-25T12:24:23.971Z,52.97
2022-12-25T12:26:50.329Z,52.37
2022-12-25T12:29:16.709Z,52.46
2022-12-25T12:31:43.146Z,52.30
2022-12-25T12:34:09.404Z,52.05
2022-12-25T12:36:36.932Z,52.56
2022-12-25T12:39:02.162Z,52.57
2022-12-25T12:41:28.536Z,52.33
2022-12-25T12:43:54.907Z,52.43
2022-12-25T12:46:26.222Z,52.68
2022-12-25T12:48:47.600Z,51.38
2022-12-25T12:51:13.987Z,51.57
2022-12-25T12:53:40.303Z,51.08
2022-12-25T12:56:06.646Z,51.81
2022-12-25T12:58:33.018Z,50.59
2022-12-25T13:00:59.363Z,50.78
2022-12-25T13:03:25.755Z,50.30
2022-12-25T13:05:52.045Z,50.39
2022-12-25T13:08:18.412Z,50.47
2022-12-25T13:10:44.751Z,50.83
2022-12-25T13:13:11.079Z,50.75
2022-12-25T13:15:37.452Z,50.70
2022-12-25T13:18:03.815Z,50.47
2022-12-25T13:20:30.220Z,50.95
2022-12-25T13:22:56.580Z,51.33
2022-12-25T13:25:22.942Z,51.37
2022-12-25T13:27:49.293Z,51.79
2022-12-25T13:30:15.627Z,51.88
2022-12-25T13:32:42.076Z,52.10
2022-12-25T13:35:08.329Z,51.87
2022-12-25T13:37:34.696Z,51.75
2022-12-25T13:40:01.091Z,52.09
2022-12-25T13:42:27.431Z,52.59
2022-12-25T13:44:53.766Z,52.91
2022-12-25T13:47:20.102Z,53.09
2022-12-25T13:49:46.434Z,53.81
2022-12-25T13:52:12.795Z,53.34
2022-12-25T13:54:39.179Z,54.08
2022-12-25T13:57:05.492Z,54.99
2022-12-25T13:59:31.892Z,55.42
2022-12-25T14:01:58.298Z,55.85
2022-12-25T14:04:24.565Z,56.47
2022-12-25T14:06:50.881Z,56.81
2022-12-25T14:09:17.280Z,57.25
2022-12-25T14:11:43.615Z,57.56
2022-12-25T14:14:09.990Z,58.08
2022-12-25T14:16:36.383Z,58.33
2022-12-25T14:19:02.731Z,58.25
2022-12-25T14:21:29.047Z,58.47
2022-12-25T14:23:55.390Z,58.68
2022-12-25T14:26:21.718Z,58.91
2022-12-25T14:28:48.151Z,59.25
2022-12-25T14:31:14.563Z,59.66
2022-12-25T14:33:40.859Z,60.19
2022-12-25T14:36:07.236Z,60.62
2022-12-25T14:38:33.606Z,60.85
2022-12-25T14:40:59.999Z,61.27
2022-12-25T14:43:26.401Z,61.53
2022-12-25T14:45:52.793Z,61.74
2022-12-25T14:48:24.719Z,61.96
2022-12-25T14:50:45.552Z,62.53
2022-12-25T14:53:11.922Z,62.98
2022-12-25T14:55:38.237Z,63.42
2022-12-25T14:58:04.622Z,63.58
2022-12-25T15:00:30.904Z,64.92
2022-12-25T15:02:57.463Z,65.12
2022-12-25T15:05:23.604Z,64.61
2022-12-25T15:07:49.957Z,64.74
2022-12-25T15:10:58.263Z,64.91
2022-12-25T15:12:42.663Z,65.16
2022-12-25T15:15:09.012Z,65.38
2022-12-25T15:17:35.406Z,65.70
2022-12-25T15:20:01.780Z,66.38
2022-12-25T15:22:37.462Z,66.80
2022-12-25T15:25:00.391Z,67.17
2022-12-25T15:27:20.797Z,67.50
2022-12-25T15:32:13.531Z,68.16
2022-12-25T15:34:39.914Z,68.14
2022-12-25T15:37:06.260Z,68.12
2022-12-25T15:39:32.612Z,67.76
2022-12-25T15:41:59.000Z,67.47
2022-12-25T15:44:25.361Z,67.39
2022-12-25T15:46:51.773Z,67.48
2022-12-25T15:49:18.036Z,67.52
2022-12-25T15:51:44.401Z,67.42
2022-12-25T15:54:10.776Z,67.40
2022-12-25T15:56:37.103Z,67.37
2022-12-25T15:59:03.437Z,67.62
2022-12-25T16:01:29.865Z,67.85
2022-12-25T16:03:56.212Z,68.16
2022-12-25T16:06:22.472Z,68.27
2022-12-25T16:08:48.861Z,68.32
2022-12-25T16:11:15.216Z,68.58
2022-12-25T16:13:41.555Z,68.83
2022-12-25T16:16:07.977Z,68.88
2022-12-25T16:18:34.262Z,68.99
2022-12-25T16:21:00.630Z,68.91
2022-12-25T16:23:26.981Z,68.55
2022-12-25T16:25:53.292Z,68.55
2022-12-25T16:28:19.650Z,68.44
2022-12-25T16:30:46.014Z,68.52
2022-12-25T16:33:12.366Z,68.70
2022-12-25T16:35:38.768Z,68.72
2022-12-25T16:38:05.089Z,68.80
2022-12-25T16:40:31.410Z,69.03
2022-12-25T16:42:57.790Z,69.18
2022-12-25T16:45:24.108Z,69.21
2022-12-25T16:47:50.494Z,69.37
2022-12-25T16:50:16.853Z,69.43
2022-12-25T16:52:43.235Z,69.15
2022-12-25T16:55:09.542Z,69.22
2022-12-25T16:57:35.912Z,69.26
2022-12-25T17:00:02.231Z,69.36
2022-12-25T17:02:28.772Z,69.51
2022-12-25T17:04:54.934Z,69.79
2022-12-25T17:07:21.282Z,69.86
2022-12-25T17:09:47.611Z,69.98
2022-12-25T17:12:13.993Z,69.84
2022-12-25T17:14:40.330Z,69.93
2022-12-25T17:17:06.706Z,70.12
2022-12-25T17:19:33.088Z,70.28
2022-12-25T17:21:59.417Z,70.40
2022-12-25T17:24:25.764Z,70.54
2022-12-25T17:26:52.124Z,70.75
2022-12-25T17:29:22.007Z,70.96
2022-12-25T17:31:44.894Z,71.47
2022-12-25T17:34:11.226Z,71.39
2022-12-25T17:36:37.619Z,71.49
2022-12-25T17:39:03.943Z,71.71
2022-12-25T17:41:30.326Z,71.80
2022-12-25T17:43:56.631Z,71.94
2022-12-25T17:46:23.067Z,72.25
2022-12-25T17:48:49.315Z,72.46
2022-12-25T17:51:15.665Z,72.62
2022-12-25T17:53:42.057Z,72.89
2022-12-25T17:56:08.401Z,73.00
2022-12-25T17:58:34.767Z,73.00
2022-12-25T18:01:01.091Z,72.79
2022-12-25T18:03:27.556Z,72.55
2022-12-25T18:05:53.791Z,72.40
2022-12-25T18:08:20.154Z,72.43
2022-12-25T18:10:46.489Z,72.58
2022-12-25T18:13:12.856Z,72.76
2022-12-25T18:15:39.238Z,72.92
2022-12-25T18:18:05.589Z,73.02
2022-12-25T18:20:39.400Z,73.32
2022-12-25T18:22:58.433Z,73.60
2022-12-25T18:25:24.807Z,73.88
2022-12-25T18:27:51.169Z,74.33
2022-12-25T18:30:17.591Z,74.45
2022-12-25T18:32:43.959Z,74.51
2022-12-25T18:35:10.315Z,74.39
2022-12-25T18:37:40.127Z,74.36
2022-12-25T18:40:03.061Z,74.39
2022-12-25T18:42:29.431Z,74.33
2022-12-25T18:44:55.780Z,74.48
2022-12-25T18:47:22.129Z,74.69
2022-12-25T18:49:48.514Z,74.74
2022-12-25T18:52:48.337Z,74.69
2022-12-25T18:54:41.275Z,74.96
2022-12-25T18:57:07.580Z,75.12
2022-12-25T18:59:33.973Z,75.57
2022-12-25T19:02:00.445Z,75.68
2022-12-25T19:04:26.677Z,75.89
2022-12-25T19:06:53.027Z,75.85
2022-12-25T19:09:19.365Z,75.87
2022-12-25T19:11:46.913Z,75.84
2022-12-25T19:14:12.110Z,75.67
2022-12-25T19:16:38.499Z,75.61
2022-12-25T19:19:04.805Z,75.80
2022-12-25T19:21:31.142Z,75.83
2022-12-25T19:23:57.498Z,75.93
2022-12-25T19:26:23.900Z,75.96
2022-12-25T19:28:50.230Z,76.28
2022-12-25T19:31:16.613Z,76.95
2022-12-25T19:33:42.936Z,77.54
2022-12-25T19:36:09.292Z,78.27
2022-12-25T19:38:35.673Z,79.03
2022-12-25T19:41:02.051Z,79.74
2022-12-25T19:43:28.419Z,80.46
2022-12-25T19:45:54.812Z,80.82
2022-12-25T19:48:21.116Z,81.11
2022-12-25T19:50:47.431Z,81.17
2022-12-25T19:53:13.808Z,81.43
2022-12-25T19:55:40.160Z,81.63
2022-12-25T19:58:06.527Z,81.97
2022-12-25T20:00:32.852Z,82.37
2022-12-25T20:02:59.345Z,82.69
2022-12-25T20:05:25.543Z,82.85
2022-12-25T20:07:51.879Z,82.60
2022-12-25T20:10:18.240Z,82.50
2022-12-25T20:12:44.577Z,82.36
2022-12-25T20:15:10.897Z,82.40
2022-12-25T20:17:37.239Z,82.94
2022-12-25T20:20:03.562Z,83.31
2022-12-25T20:22:29.957Z,83.89
2022-12-25T20:24:56.381Z,84.26
2022-12-25T20:27:22.771Z,84.83
2022-12-25T20:29:49.184Z,84.96
2022-12-25T20:32:15.688Z,85.21
2022-12-25T20:34:41.905Z,85.53
2022-12-25T20:37:08.278Z,85.79
2022-12-25T20:39:34.629Z,86.01
2022-12-25T20:42:00.960Z,86.01
2022-12-25T20:44:27.324Z,86.01
2022-12-25T20:46:53.656Z,85.90
2022-12-25T20:49:20.016Z,86.33
2022-12-25T20:51:46.395Z,86.77
2022-12-25T20:54:12.754Z,86.83
2022-12-25T20:56:39.089Z,86.77
2022-12-25T20:59:05.408Z,86.75
2022-12-25T21:01:31.973Z,86.99
2022-12-25T21:03:58.267Z,87.07
2022-12-25T21:06:24.563Z,87.35
2022-12-25T21:08:50.994Z,87.19
2022-12-25T21:11:17.336Z,87.30
2022-12-25T21:13:43.736Z,87.47
2022-12-25T21:16:10.182Z,87.52
2022-12-25T21:18:36.495Z,87.50
2022-12-25T21:21:02.829Z,87.53
2022-12-25T21:23:29.167Z,87.45
2022-12-25T21:25:55.548Z,87.50
2022-12-25T21:28:21.879Z,87.59
2022-12-25T21:30:48.274Z,87.93
2022-12-25T21:33:17.037Z,88.04
2022-12-25T21:35:40.950Z,87.63
2022-12-25T21:38:07.306Z,87.30
2022-12-25T21:40:33.677Z,87.65
2022-12-25T21:43:00.029Z,87.89
2022-12-25T21:45:26.365Z,87.76
2022-12-25T21:48:00.251Z,87.84
2022-12-25T21:50:19.133Z,87.71
2022-12-25T21:52:45.479Z,87.48
2022-12-25T21:55:11.881Z,87.16
2022-12-25T21:57:38.212Z,86.77
2022-12-25T22:00:04.607Z,86.60
2022-12-25T22:02:31.182Z,86.29
2022-12-25T22:04:57.338Z,86.14
2022-12-25T22:07:23.692Z,85.89
2022-12-25T22:09:50.067Z,86.38
2022-12-25T22:12:16.423Z,86.76
2022-12-25T22:14:51.732Z,86.76
2022-12-25T22:17:09.141Z,86.70
2022-12-25T22:19:35.548Z,86.29
2022-12-25T22:22:01.885Z,85.73
2022-12-25T22:24:28.275Z,85.49
2022-12-25T22:26:54.582Z,85.93
2022-12-25T22:29:21.025Z,86.07
2022-12-25T22:31:47.466Z,85.80
2022-12-25T22:34:13.704Z,85.70
2022-12-25T22:36:40.083Z,86.04
2022-12-25T22:39:06.424Z,86.21
2022-12-25T22:41:33.889Z,86.50
2022-12-25T22:46:25.505Z,87.47
2022-12-25T22:48:51.859Z,87.69
2022-12-25T22:51:18.326Z,87.61
2022-12-25T22:53:44.683Z,87.66
2022-12-25T22:56:11.113Z,88.02
2022-12-25T22:58:37.462Z,88.40
2022-12-25T23:01:03.777Z,88.52
2022-12-25T23:03:30.226Z,88.67
2022-12-25T23:05:56.464Z,88.48
2022-12-25T23:08:22.860Z,88.84
2022-12-25T23:10:49.202Z,89.11
2022-12-25T23:13:15.539Z,89.71
2022-12-25T23:15:42.029Z,89.87
2022-12-25T23:18:08.302Z,89.30
2022-12-25T23:20:34.664Z,89.50
2022-12-25T23:23:01.043Z,90.15
2022-12-25T23:25:27.391Z,90.48
2022-12-25T23:27:53.738Z,93.13
2022-12-25T23:30:20.119Z,93.59
2022-12-25T23:32:46.480Z,93.17
2022-12-25T23:35:12.855Z,91.63
2022-12-25T23:37:39.175Z,91.06
2022-12-25T23:40:05.508Z,91.97
2022-12-25T23:42:31.901Z,92.85
2022-12-25T23:44:58.275Z,93.28
2022-12-25T23:47:24.615Z,92.97
2022-12-25T23:49:50.953Z,92.00
2022-12-25T23:52:17.310Z,91.98
2022-12-25T23:54:43.697Z,91.17
2022-12-25T23:57:10.014Z,89.65
2022-12-25T23:59:36.397Z,89.61
